Time;durP1;ratioP1;P1;durP2;ratioP2;P2;SDS_P1;SDS_P2;PMS_P1;PMS_P2;Temp;Humidity;BMP_temperature;BMP_pressure;BME280_temperature;BME280_humidity;BME280_pressure;Samples;Min_cycle;Max_cycle;Signal;HPM_P1;HPM_P2
2022/11/07 00:01:54;;;;;;;28.80;18.20;;;12.20;99.90;;;12.23;70.90;95177.63;5005359;28;20531;-57
2022/11/07 00:04:21;;;;;;;28.83;17.47;;;12.20;99.90;;;12.20;71.00;95175.28;5015189;28;20487;-57
2022/11/07 00:06:50;;;;;;;29.63;20.30;;;12.10;99.90;;;12.18;70.67;95174.59;5010475;28;20994;-56
2022/11/07 00:09:17;;;;;;;27.93;18.20;;;12.10;99.90;;;12.16;71.25;95179.16;5013364;28;20538;-55
2022/11/07 00:11:45;;;;;;;27.90;18.23;;;12.10;99.90;;;12.15;71.45;95188.06;5008996;28;20466;-57
2022/11/07 00:14:12;;;;;;;34.07;22.40;;;12.00;99.90;;;12.10;71.80;95183.22;5010387;28;20882;-56
2022/11/07 00:16:40;;;;;;;29.83;17.50;;;12.10;99.90;;;12.09;71.74;95186.81;5006101;28;21207;-56
2022/11/07 00:19:07;;;;;;;28.80;19.33;;;12.00;99.90;;;12.09;71.68;95191.28;5012867;28;20488;-57
2022/11/07 00:21:34;;;;;;;37.70;20.00;;;12.00;99.90;;;12.08;71.88;95189.59;5004777;28;20475;-56
2022/11/07 00:24:03;;;;;;;32.33;18.90;;;12.00;99.90;;;12.05;72.06;95190.69;5010702;28;20538;-54
2022/11/07 00:26:31;;;;;;;27.07;17.67;;;12.00;99.90;;;12.04;72.09;95201.38;5011706;28;20509;-54
2022/11/07 00:28:58;;;;;;;28.67;17.30;;;12.00;99.90;;;12.02;71.65;95189.19;5015779;28;20445;-57
2022/11/07 00:31:25;;;;;;;27.83;18.60;;;12.00;99.90;;;12.01;72.07;95191.97;5012979;28;20486;-56
2022/11/07 00:33:52;;;;;;;33.63;20.07;;;12.00;99.90;;;11.99;71.47;95186.00;5013387;28;21079;-58
2022/11/07 00:36:21;;;;;;;26.90;17.70;;;12.00;99.90;;;11.97;72.26;95193.22;5011472;28;20484;-54
2022/11/07 00:38:48;;;;;;;30.67;18.53;;;11.90;99.90;;;11.94;72.00;95191.69;5016418;28;20445;-57
2022/11/07 00:41:17;;;;;;;31.87;18.53;;;11.90;99.90;;;11.91;72.01;95191.94;5011609;28;20482;-56
2022/11/07 00:43:44;;;;;;;32.67;18.90;;;11.90;99.90;;;11.90;71.96;95192.06;5012539;28;20461;-57
2022/11/07 00:46:12;;;;;;;28.90;18.77;;;11.80;99.90;;;11.87;72.37;95187.06;5016383;28;20907;-56
2022/11/07 00:48:39;;;;;;;37.03;19.57;;;11.80;99.90;;;11.85;71.95;95181.97;5013261;28;20457;-56
2022/11/07 00:51:07;;;;;;;35.20;19.30;;;11.80;99.90;;;11.82;71.86;95185.72;5013735;28;20568;-54
2022/11/07 00:53:35;;;;;;;30.03;19.27;;;11.80;99.90;;;11.81;72.07;95186.66;5010610;28;21020;-54
2022/11/07 00:56:02;;;;;;;30.53;19.97;;;11.80;99.90;;;11.78;72.15;95183.50;5013528;28;21009;-57
2022/11/07 00:58:31;;;;;;;23.50;18.20;;;11.70;99.90;;;11.74;72.18;95182.94;5011929;28;20943;-56
2022/11/07 01:00:58;;;;;;;34.30;20.00;;;11.70;99.90;;;11.69;72.61;95179.88;5014819;28;20568;-56
2022/11/07 01:06:11;;;;;;;31.27;19.03;;;11.60;99.90;;;11.62;72.84;95171.72;5010915;28;20471;-57
2022/11/07 01:08:38;;;;;;;37.40;20.10;;;11.60;99.90;;;11.60;73.43;95175.44;5013195;28;20454;-56
2022/11/07 01:11:06;;;;;;;25.80;17.80;;;11.60;99.90;;;11.60;73.24;95163.13;5016192;28;20576;-56
2022/11/07 01:13:35;;;;;;;28.30;18.27;;;11.60;99.90;;;11.59;73.70;95164.09;5009409;28;20604;-57
2022/11/07 01:16:02;;;;;;;31.07;18.73;;;11.60;99.90;;;11.59;73.26;95168.53;5008267;28;20469;-57
2022/11/07 01:18:30;;;;;;;29.17;19.30;;;11.60;99.90;;;11.59;72.72;95163.25;5013647;28;20781;-56
2022/11/07 01:20:57;;;;;;;27.43;19.60;;;11.50;99.90;;;11.58;72.84;95167.69;5007113;28;20523;-56
2022/11/07 01:23:24;;;;;;;34.73;19.27;;;11.50;99.90;;;11.57;72.91;95165.19;5010059;28;20450;-57
2022/11/07 01:25:51;;;;;;;26.60;17.77;;;11.50;99.90;;;11.56;73.13;95166.16;5012502;28;20489;-57
2022/11/07 01:28:19;;;;;;;28.17;17.70;;;11.50;99.90;;;11.55;73.16;95164.50;5017705;28;20464;-57
2022/11/07 01:30:48;;;;;;;27.90;18.90;;;11.50;99.90;;;11.53;72.91;95158.53;5012903;28;20475;-56
2022/11/07 01:33:15;;;;;;;31.23;19.33;;;11.50;99.90;;;11.50;72.82;95164.09;5018223;28;20460;-56
2022/11/07 01:35:42;;;;;;;30.43;18.80;;;11.50;99.90;;;11.48;73.10;95172.13;5014205;28;20473;-57
2022/11/07 01:38:09;;;;;;;32.00;19.87;;;11.40;99.90;;;11.44;72.90;95176.00;5014714;28;20457;-56
2022/11/07 01:41:19;;;;;;;33.60;21.20;;;11.40;99.90;;;11.42;73.12;95170.03;5018568;28;20480;-56
2022/11/07 01:43:45;;;;;;;28.73;18.80;;;11.40;99.90;;;11.38;72.58;95164.19;5015039;28;20454;-56
2022/11/07 01:46:13;;;;;;;32.80;20.90;;;11.40;99.90;;;11.36;73.06;95170.59;5012782;28;20518;-56
2022/11/07 01:48:42;;;;;;;38.03;21.67;;;11.30;99.90;;;11.34;73.34;95170.72;5014415;28;20498;-57
2022/11/07 01:51:09;;;;;;;28.43;20.53;;;11.30;99.90;;;11.33;73.43;95169.06;5017304;28;20468;-56
2022/11/07 01:53:36;;;;;;;32.60;22.23;;;11.30;99.90;;;11.32;73.50;95166.56;5020371;28;20460;-54
2022/11/07 01:56:05;;;;;;;34.93;20.90;;;11.30;99.90;;;11.28;73.63;95169.47;5016887;28;21001;-55
2022/11/07 01:58:32;;;;;;;28.13;20.30;;;11.30;99.90;;;11.26;73.67;95167.94;5013886;28;20522;-56
2022/11/07 02:00:59;;;;;;;28.60;19.60;;;11.30;99.90;;;11.24;73.60;95170.69;5018881;28;20474;-55
2022/11/07 02:03:28;;;;;;;33.77;20.50;;;11.20;99.90;;;11.22;73.94;95167.38;5010652;28;20854;-56
2022/11/07 02:05:57;;;;;;;37.80;21.70;;;11.20;99.90;;;11.20;74.47;95171.09;5019571;28;20480;-56
2022/11/07 02:08:24;;;;;;;39.97;22.10;;;11.20;99.90;;;11.20;74.16;95179.84;5014626;28;20621;-57
2022/11/07 02:10:51;;;;;;;31.70;21.63;;;11.20;99.90;;;11.19;74.70;95174.72;5016316;28;20480;-57
2022/11/07 02:13:23;;;;;;;31.57;20.80;;;11.20;99.90;;;11.17;74.38;95166.97;5018898;28;20974;-57
2022/11/07 02:15:50;;;;;;;32.83;20.37;;;11.10;99.90;;;11.18;74.31;95173.06;5015962;28;20518;-55
2022/11/07 02:18:18;;;;;;;29.57;21.83;;;11.10;99.90;;;11.18;74.49;95175.69;5011103;28;20460;-56
2022/11/07 02:20:46;;;;;;;34.30;21.53;;;11.10;99.90;;;11.15;74.42;95173.31;5011449;28;20993;-55
2022/11/07 02:23:16;;;;;;;26.37;21.07;;;11.10;99.90;;;11.16;74.27;95169.72;5012949;28;20492;-54
2022/11/07 02:25:45;;;;;;;34.80;20.87;;;11.10;99.90;;;11.13;74.56;95169.00;5018562;28;20488;-57
2022/11/07 02:28:12;;;;;;;29.50;20.40;;;11.10;99.90;;;11.12;74.55;95169.16;5014629;28;20457;-56
2022/11/07 02:30:39;;;;;;;32.30;19.40;;;11.10;99.90;;;11.11;74.63;95170.13;5017107;28;20484;-55
2022/11/07 02:33:17;;;;;;;31.20;20.50;;;11.10;99.90;;;11.11;74.77;95165.69;5015737;28;20457;-57
2022/11/07 02:35:46;;;;;;;38.17;21.40;;;11.10;99.90;;;11.09;74.91;95167.66;5014061;28;20846;-58
2022/11/07 02:38:17;;;;;;;38.93;21.90;;;11.10;99.90;;;11.08;74.91;95178.31;5016042;28;20465;-57
2022/11/07 02:40:48;;;;;;;36.43;21.87;;;11.00;99.90;;;11.06;74.77;95178.44;5018972;28;20485;-53
2022/11/07 02:43:15;;;;;;;32.37;20.77;;;11.00;99.90;;;11.06;74.95;95173.19;5014708;28;20461;-57
2022/11/07 02:45:44;;;;;;;33.90;22.00;;;11.00;99.90;;;11.05;75.16;95175.94;5018547;28;20650;-55
2022/11/07 02:48:11;;;;;;;33.53;20.80;;;11.00;99.90;;;11.05;75.12;95174.13;5013813;28;20450;-57
2022/11/07 02:50:38;;;;;;;34.97;21.90;;;11.00;99.90;;;11.05;75.29;95174.13;5013551;28;20484;-54
2022/11/07 02:53:06;;;;;;;37.77;22.20;;;11.00;99.90;;;11.06;75.63;95178.44;5016536;28;20542;-55
2022/11/07 02:55:33;;;;;;;31.97;21.43;;;11.00;99.90;;;11.06;75.59;95167.91;5018783;28;20496;-54
2022/11/07 02:58:02;;;;;;;39.13;21.03;;;11.00;99.90;;;11.08;75.69;95168.59;5015618;28;20449;-56
2022/11/07 03:00:29;;;;;;;33.03;20.33;;;11.00;99.90;;;11.11;75.87;95165.69;5012235;28;20876;-56
2022/11/07 03:02:56;;;;;;;34.20;21.67;;;11.10;99.90;;;11.13;75.48;95163.75;5016806;28;20453;-56
2022/11/07 03:05:23;;;;;;;29.83;20.37;;;11.10;99.90;;;11.16;75.41;95167.09;5015941;28;20480;-55
2022/11/07 03:07:51;;;;;;;48.00;22.77;;;11.10;99.90;;;11.18;75.49;95173.06;5014994;28;20467;-56
2022/11/07 03:10:18;;;;;;;30.43;20.30;;;11.10;99.90;;;11.17;75.22;95169.59;5014999;28;20476;-56
2022/11/07 03:12:46;;;;;;;31.77;21.03;;;11.10;99.90;;;11.16;75.77;95178.44;5017570;28;21060;-57
2022/11/07 03:15:14;;;;;;;35.27;22.80;;;11.10;99.90;;;11.19;75.94;95174.72;5015110;28;20588;-57
2022/11/07 03:17:42;;;;;;;32.00;21.03;;;11.20;99.90;;;11.22;76.00;95177.91;5018015;28;21050;-55
2022/11/07 03:20:11;;;;;;;42.33;21.43;;;11.10;99.90;;;11.26;75.41;95178.47;5009100;28;20827;-56
2022/11/07 03:22:38;;;;;;;32.93;21.27;;;11.20;99.90;;;11.29;75.24;95192.22;5013120;28;20766;-57
2022/11/07 03:25:07;;;;;;;34.30;20.93;;;11.30;99.90;;;11.33;75.63;95190.13;5012685;28;20859;-57
2022/11/07 03:27:34;;;;;;;44.57;22.20;;;11.30;99.90;;;11.38;75.36;95187.91;5011967;28;20490;-57
2022/11/07 03:30:01;;;;;;;34.50;22.00;;;11.30;99.90;;;11.41;74.83;95192.91;5017713;28;20478;-56
2022/11/07 03:32:30;;;;;;;31.17;22.40;;;11.40;99.90;;;11.45;75.04;95196.09;5014962;28;20457;-56
2022/11/07 03:34:57;;;;;;;35.77;21.10;;;11.40;99.90;;;11.48;74.79;95199.28;5014272;28;21021;-56
2022/11/07 03:37:24;;;;;;;34.43;21.70;;;11.40;99.90;;;11.51;74.89;95199.97;5015470;28;20456;-57
2022/11/07 03:39:52;;;;;;;48.57;20.93;;;11.50;99.90;;;11.55;74.83;95204.00;5014580;28;20453;-56
2022/11/07 03:42:19;;;;;;;36.23;22.10;;;11.50;99.90;;;11.57;74.70;95202.91;5012315;28;20978;-57
2022/11/07 03:44:46;;;;;;;30.00;22.10;;;11.50;99.90;;;11.61;74.77;95209.56;5015479;28;20473;-57
2022/11/07 03:47:13;;;;;;;37.83;22.37;;;11.60;99.90;;;11.65;74.66;95215.41;5016967;28;20476;-56
2022/11/07 03:49:42;;;;;;;47.43;21.00;;;11.60;99.90;;;11.69;74.98;95214.13;5014214;28;21035;-57
2022/11/07 03:52:09;;;;;;;39.37;23.80;;;11.60;99.90;;;11.72;74.56;95215.66;5017464;28;20832;-55
2022/11/07 03:54:37;;;;;;;30.13;21.60;;;11.60;99.90;;;11.75;74.82;95221.50;5012983;28;20512;-57
2022/11/07 03:57:04;;;;;;;36.13;22.30;;;11.70;99.90;;;11.79;75.30;95220.25;5016790;28;20863;-56
2022/11/07 03:59:31;;;;;;;44.23;23.27;;;11.70;99.90;;;11.84;74.82;95220.66;5014333;28;20462;-56
2022/11/07 04:01:59;;;;;;;36.80;23.87;;;11.80;99.90;;;11.89;75.18;95216.78;5015528;28;20871;-58
2022/11/07 04:04:26;;;;;;;33.17;22.10;;;11.80;99.90;;;11.92;75.34;95224.41;5018120;28;20973;-57
2022/11/07 04:06:55;;;;;;;43.13;22.80;;;11.90;99.90;;;11.99;74.99;95225.53;5010737;28;20481;-56
2022/11/07 04:09:22;;;;;;;58.97;21.40;;;11.90;99.90;;;12.00;74.91;95228.03;5017954;28;20506;-57
2022/11/07 04:17:18;;;;;;;38.37;20.97;;;12.00;99.90;;;12.01;74.78;95223.59;5012474;28;21002;-56
2022/11/07 04:19:46;;;;;;;28.80;20.67;;;11.90;99.90;;;12.01;75.35;95226.25;5011299;28;20442;-57
2022/11/07 04:22:14;;;;;;;42.27;22.97;;;11.90;99.90;;;12.01;75.46;95227.06;5014249;28;20564;-56
2022/11/07 04:24:42;;;;;;;43.77;22.37;;;12.00;99.90;;;12.02;75.26;95227.88;5010945;28;20475;-56
2022/11/07 04:29:56;;;;;;;55.60;28.80;;;12.00;99.90;;;12.10;75.45;95235.94;5014556;28;20472;-56
2022/11/07 04:32:23;;;;;;;60.40;32.10;;;12.00;99.90;;;12.11;75.26;95224.41;5015680;28;20705;-55
2022/11/07 04:34:50;;;;;;;91.80;44.50;;;12.00;99.90;;;12.13;75.40;95238.31;5013092;28;20580;-53
2022/11/07 04:37:19;;;;;;;47.03;21.53;;;12.10;99.90;;;12.16;75.76;95235.38;5008949;28;20455;-54
2022/11/07 04:39:46;;;;;;;49.23;24.23;;;12.10;99.90;;;12.17;76.30;95229.13;5006503;28;20485;-56
2022/11/07 04:42:13;;;;;;;38.53;21.80;;;12.10;99.90;;;12.19;75.76;95237.75;5004866;28;20465;-56
2022/11/07 04:44:41;;;;;;;44.23;22.17;;;12.10;99.90;;;12.21;75.78;95237.59;5003757;28;20453;-57
2022/11/07 04:47:08;;;;;;;39.33;22.23;;;12.10;99.90;;;12.21;75.08;95237.59;5005797;28;20982;-55
2022/11/07 04:49:36;;;;;;;35.67;21.30;;;12.10;99.90;;;12.20;74.84;95244.66;5007629;28;20460;-57
2022/11/07 04:52:03;;;;;;;32.80;21.50;;;12.10;99.90;;;12.18;74.30;95243.97;5003186;28;20494;-57
2022/11/07 04:54:32;;;;;;;29.87;20.20;;;12.10;99.90;;;12.16;74.39;95248.56;5000739;28;20461;-56
2022/11/07 04:56:59;;;;;;;34.30;21.33;;;12.10;99.90;;;12.14;74.53;95252.31;5001298;28;20528;-57
2022/11/07 04:59:26;;;;;;;35.33;22.83;;;12.10;99.90;;;12.14;74.32;95253.13;5014475;28;20448;-57
2022/11/07 05:01:54;;;;;;;45.57;24.57;;;12.10;99.90;;;12.13;74.01;95248.84;5005312;28;20485;-56
2022/11/07 05:04:21;;;;;;;36.57;23.37;;;12.10;99.90;;;12.12;73.74;95254.28;5005577;28;20460;-57
2022/11/07 05:06:48;;;;;;;37.97;22.70;;;12.10;99.90;;;12.08;73.81;95245.78;5007913;28;20614;-56
2022/11/07 05:09:16;;;;;;;52.17;23.13;;;12.00;99.90;;;12.09;73.46;95252.72;5011427;28;20526;-57
2022/11/07 05:11:45;;;;;;;44.20;23.03;;;12.00;99.90;;;12.09;73.43;95257.19;5011658;28;20492;-55
2022/11/07 05:14:12;;;;;;;43.10;24.10;;;12.00;99.90;;;12.09;73.71;95255.38;5007691;28;20450;-56
2022/11/07 05:16:40;;;;;;;41.77;23.77;;;12.00;99.90;;;12.10;73.74;95258.81;5013983;28;20492;-56
2022/11/07 05:19:07;;;;;;;35.70;23.13;;;12.00;99.90;;;12.11;73.66;95263.13;5016494;28;20515;-56
2022/11/07 05:21:34;;;;;;;39.13;22.80;;;12.10;99.90;;;12.13;73.45;95266.47;5006769;28;20466;-57
2022/11/07 05:24:00;;;;;;;37.33;21.27;;;12.10;99.90;;;12.10;73.70;95266.75;5013961;28;20457;-56
2022/11/07 05:26:28;;;;;;;46.83;21.87;;;12.10;99.90;;;12.12;73.25;95278.81;5003124;28;20512;-56
2022/11/07 05:28:56;;;;;;;42.37;22.30;;;12.10;99.90;;;12.12;72.93;95265.63;5009850;28;20462;-57
2022/11/07 05:31:24;;;;;;;40.50;21.77;;;12.10;99.90;;;12.12;73.08;95276.19;5012669;28;20485;-55
2022/11/07 05:33:51;;;;;;;47.80;23.90;;;12.10;99.90;;;12.12;73.14;95280.63;5005080;28;20549;-58
2022/11/07 05:36:20;;;;;;;39.50;22.17;;;12.10;99.90;;;12.15;73.33;95275.91;5010340;28;20561;-57
2022/11/07 05:38:49;;;;;;;44.13;22.17;;;12.10;99.90;;;12.18;73.42;95291.44;5009173;28;20504;-56
2022/11/07 05:41:18;;;;;;;36.97;21.60;;;12.10;99.90;;;12.22;73.17;95285.91;5012034;28;20476;-57
2022/11/07 05:43:45;;;;;;;37.30;21.60;;;12.10;99.90;;;12.25;73.38;95296.16;5007912;28;20464;-57
2022/11/07 05:46:14;;;;;;;36.47;22.30;;;12.20;99.90;;;12.29;73.33;95287.84;5007784;28;20470;-58
2022/11/07 05:48:41;;;;;;;45.93;24.20;;;12.20;99.90;;;12.34;73.28;95292.69;5010641;28;20450;-57
2022/11/07 05:51:08;;;;;;;46.60;24.40;;;12.30;99.90;;;12.38;73.11;95297.53;5014307;28;20460;-57
2022/11/07 05:53:36;;;;;;;42.30;24.53;;;12.30;99.90;;;12.42;72.99;95303.38;5006999;28;20517;-57
2022/11/07 05:56:03;;;;;;;41.17;23.77;;;12.30;99.90;;;12.47;73.00;95301.16;5009933;28;20497;-57
2022/11/07 05:58:30;;;;;;;46.33;22.63;;;12.40;99.90;;;12.51;72.95;95302.53;5011206;28;20492;-57
2022/11/07 06:01:01;;;;;;;37.70;23.27;;;12.40;99.90;;;12.57;72.56;95305.59;5012267;28;20476;-57
2022/11/07 06:03:30;;;;;;;33.90;22.87;;;12.50;99.90;;;12.61;72.46;95309.59;5006727;28;20450;-57
2022/11/07 06:05:58;;;;;;;38.77;23.93;;;12.50;99.90;;;12.66;72.78;95310.03;5014100;28;20575;-57
2022/11/07 06:08:25;;;;;;;39.83;23.03;;;12.60;99.90;;;12.69;72.46;95304.47;5009974;28;20457;-57
2022/11/07 06:10:52;;;;;;;49.23;24.13;;;12.60;99.90;;;12.72;72.36;95306.81;5010133;28;20473;-56
2022/11/07 06:13:20;;;;;;;44.57;24.30;;;12.70;99.90;;;12.78;72.48;95314.16;5006370;28;21181;-57
2022/11/07 06:15:47;;;;;;;47.93;23.43;;;12.70;99.90;;;12.82;72.32;95314.69;5008242;28;20500;-58
2022/11/07 06:18:16;;;;;;;41.17;23.50;;;12.70;99.90;;;12.86;72.03;95319.56;5008292;28;20449;-56
2022/11/07 06:20:45;;;;;;;47.07;22.43;;;12.80;99.90;;;12.93;72.27;95311.06;5013308;28;20833;-56
2022/11/07 06:23:12;;;;;;;58.80;25.33;;;12.80;99.90;;;13.00;72.15;95320.91;5006873;28;20459;-56
2022/11/07 06:25:39;;;;;;;39.83;22.60;;;12.90;99.90;;;13.05;71.91;95321.31;5014633;28;20823;-55
2022/11/07 06:28:08;;;;;;;56.50;24.47;;;12.90;99.90;;;13.12;71.17;95329.50;5012140;28;20457;-56
2022/11/07 06:30:36;;;;;;;39.50;24.70;;;13.00;99.90;;;13.17;71.92;95337.00;5013101;28;20862;-56
2022/11/07 06:33:05;;;;;;;37.07;23.70;;;13.10;99.90;;;13.23;71.92;95337.25;5012068;28;20974;-55
2022/11/07 06:35:32;;;;;;;43.83;26.47;;;13.10;99.90;;;13.33;72.05;95336.38;5017045;28;20580;-57
2022/11/07 06:38:02;;;;;;;48.70;26.17;;;13.20;99.90;;;13.39;71.33;95346.38;5016567;28;20783;-56
2022/11/07 06:40:30;;;;;;;49.73;26.73;;;13.30;99.90;;;13.44;71.32;95344.13;5015510;28;20556;-55
2022/11/07 06:43:05;;;;;;;52.93;27.00;;;13.30;99.90;;;13.51;71.62;95347.88;5014816;28;20978;-57
2022/11/07 06:45:32;;;;;;;71.17;28.87;;;13.40;99.90;;;13.56;71.13;95345.59;5015405;28;20488;-56
2022/11/07 06:47:59;;;;;;;52.67;25.90;;;13.40;99.90;;;13.65;70.97;95349.19;5015849;28;20458;-60
2022/11/07 06:50:27;;;;;;;41.97;24.83;;;13.50;99.90;;;13.71;70.94;95353.88;5013786;28;21006;-56
2022/11/07 06:52:54;;;;;;;60.13;25.20;;;13.60;99.90;;;13.76;70.65;95356.09;5016867;28;20460;-57
2022/11/07 06:55:23;;;;;;;39.90;24.60;;;13.60;99.90;;;13.82;70.68;95360.78;5017607;28;20501;-55
2022/11/07 06:57:50;;;;;;;43.20;23.33;;;13.70;99.90;;;13.85;70.80;95360.50;5014965;28;20452;-55
2022/11/07 07:00:18;;;;;;;42.27;24.90;;;13.80;99.90;;;13.92;71.30;95358.09;5018387;28;20469;-54
2022/11/07 07:02:45;;;;;;;56.97;26.00;;;13.80;99.90;;;14.01;71.21;95357.19;5013686;28;20618;-57
2022/11/07 07:05:12;;;;;;;46.03;26.10;;;13.90;99.90;;;14.08;70.71;95358.28;5013661;28;20543;-54
2022/11/07 07:07:40;;;;;;;60.70;25.00;;;13.90;99.90;;;14.15;70.77;95363.78;5012889;28;20512;-56
2022/11/07 07:10:09;;;;;;;42.83;25.30;;;14.00;99.90;;;14.23;70.79;95358.56;5016237;28;20496;-56
2022/11/07 07:12:38;;;;;;;43.87;26.00;;;14.10;99.90;;;14.33;70.27;95369.09;5014623;28;20464;-56
2022/11/07 07:15:07;;;;;;;62.13;23.10;;;14.20;99.90;;;14.40;70.25;95358.75;5011107;28;20481;-55
2022/11/07 07:17:34;;;;;;;46.93;22.80;;;14.20;99.90;;;14.50;70.14;95364.75;5011098;28;20448;-55
2022/11/07 07:20:01;;;;;;;49.43;24.03;;;14.30;99.90;;;14.58;69.97;95359.56;5009593;28;20498;-57
2022/11/07 07:22:28;;;;;;;52.37;25.47;;;14.40;99.90;;;14.67;69.49;95366.63;5014901;28;20481;-57
2022/11/07 07:24:56;;;;;;;38.90;21.70;;;14.50;99.90;;;14.76;69.31;95364.84;5010518;28;20485;-56
2022/11/07 07:27:23;;;;;;;50.40;25.07;;;14.60;99.90;;;14.85;68.73;95366.59;5017253;28;20877;-57
2022/11/07 07:29:52;;;;;;;43.63;23.00;;;14.70;99.90;;;14.97;68.91;95364.53;5012632;28;20453;-56
2022/11/07 07:32:20;;;;;;;36.57;23.33;;;14.80;99.90;;;15.08;68.23;95362.63;5016190;28;20445;-55
2022/11/07 07:34:47;;;;;;;46.53;20.50;;;14.90;99.90;;;15.15;67.70;95363.66;5007129;28;20453;-55
2022/11/07 07:37:14;;;;;;;37.23;22.17;;;15.00;99.90;;;15.20;67.16;95366.69;5014403;28;20499;-56
2022/11/07 07:39:41;;;;;;;41.23;24.43;;;15.10;99.90;;;15.23;67.16;95366.38;5016081;28;20468;-56
2022/11/07 07:42:09;;;;;;;27.30;20.90;;;15.10;99.90;;;15.30;66.99;95362.09;5014880;28;20454;-56
2022/11/07 07:44:36;;;;;;;43.93;23.73;;;15.10;99.90;;;15.34;66.77;95360.78;5011143;28;20460;-55
2022/11/07 07:47:05;;;;;;;33.87;19.67;;;15.20;99.90;;;15.39;66.40;95365.63;5015320;28;20929;-56
2022/11/07 07:49:33;;;;;;;31.80;21.60;;;15.20;99.90;;;15.42;66.11;95360.81;5014382;28;20449;-56
2022/11/07 07:52:00;;;;;;;32.20;20.87;;;15.30;99.90;;;15.44;66.38;95365.16;5011778;28;20989;-56
2022/11/07 07:54:27;;;;;;;42.13;21.83;;;15.30;99.90;;;15.46;65.95;95368.47;5013738;28;20505;-54
2022/11/07 07:56:54;;;;;;;35.40;22.47;;;15.30;99.90;;;15.46;65.98;95365.81;5013855;28;21193;-57
2022/11/07 07:59:22;;;;;;;44.03;23.40;;;15.30;99.90;;;15.44;66.01;95368.63;5014220;28;20515;-58
2022/11/07 08:01:49;;;;;;;43.23;23.80;;;15.30;99.90;;;15.44;65.99;95365.16;5012196;28;20904;-55
2022/11/07 08:04:18;;;;;;;42.60;24.00;;;15.30;99.90;;;15.46;66.16;95365.81;5015859;28;20458;-57
2022/11/07 08:06:45;;;;;;;38.33;23.27;;;15.30;99.90;;;15.48;66.14;95371.81;5018099;28;20496;-56
2022/11/07 08:09:12;;;;;;;55.13;25.80;;;15.30;99.90;;;15.47;66.02;95367.47;5014005;28;20448;-57
2022/11/07 08:11:39;;;;;;;46.47;24.53;;;15.30;99.90;;;15.49;66.32;95376.09;5013135;28;20476;-55
2022/11/07 08:14:07;;;;;;;37.13;21.47;;;15.30;99.90;;;15.50;66.19;95364.53;5017488;28;20519;-57
2022/11/07 08:16:34;;;;;;;38.57;21.50;;;15.30;99.90;;;15.51;66.23;95371.50;5012751;28;21128;-57
2022/11/07 08:19:01;;;;;;;34.70;22.20;;;15.40;99.90;;;15.52;66.01;95370.47;5014940;28;20491;-57
2022/11/07 08:21:30;;;;;;;40.93;22.40;;;15.30;99.90;;;15.58;66.20;95369.84;5007223;28;20481;-56
2022/11/07 08:23:57;;;;;;;47.33;23.57;;;15.40;99.90;;;15.65;66.31;95370.88;5013345;28;20505;-56
2022/11/07 08:26:25;;;;;;;33.97;21.87;;;15.50;99.90;;;15.70;66.05;95367.75;5011900;28;21038;-57
2022/11/07 08:28:53;;;;;;;36.73;20.57;;;15.50;99.90;;;15.74;65.57;95361.97;5008248;28;20449;-59
2022/11/07 08:31:21;;;;;;;44.13;19.77;;;15.60;99.90;;;15.78;65.67;95370.47;5015767;28;20562;-58
2022/11/07 08:33:48;;;;;;;37.00;20.23;;;15.60;99.90;;;15.81;65.58;95371.97;5011101;28;20448;-56
2022/11/07 08:36:15;;;;;;;34.00;20.03;;;15.60;99.90;;;15.84;65.30;95366.34;5012435;28;20505;-55
2022/11/07 08:38:44;;;;;;;40.00;22.00;;;15.70;99.90;;;15.87;65.25;95369.50;5015690;28;20450;-55
2022/11/07 08:41:11;;;;;;;42.83;22.40;;;15.70;99.90;;;15.92;65.17;95372.50;5010459;28;20535;-56
2022/11/07 08:43:38;;;;;;;43.43;21.73;;;15.70;99.90;;;16.00;64.90;95368.22;5013869;28;21534;-54
2022/11/07 08:46:06;;;;;;;49.40;23.60;;;15.80;99.90;;;16.08;64.68;95369.09;5009153;28;20787;-55
2022/11/07 08:48:33;;;;;;;41.93;23.20;;;15.90;99.90;;;16.16;64.39;95367.44;5013606;28;20876;-58
2022/11/07 08:51:01;;;;;;;46.30;21.23;;;15.90;99.90;;;16.24;64.06;95376.25;5011316;28;20465;-57
2022/11/07 08:53:29;;;;;;;36.40;20.93;;;16.00;99.90;;;16.28;64.10;95371.44;5014255;28;20480;-56
2022/11/07 08:56:07;;;;;;;36.33;22.13;;;16.10;99.90;;;16.33;63.71;95374.47;5017084;28;20532;-56
2022/11/07 08:58:34;;;;;;;38.93;23.30;;;16.10;99.90;;;16.39;64.13;95372.97;5010603;28;20468;-54
2022/11/07 09:01:05;;;;;;;47.33;20.97;;;16.20;99.90;;;16.49;63.97;95379.78;5013260;28;20470;-56
2022/11/07 09:03:34;;;;;;;31.97;19.50;;;16.30;99.90;;;16.62;63.26;95374.00;5011274;28;20834;-56
2022/11/07 09:06:03;;;;;;;27.07;18.97;;;16.40;99.70;;;16.74;63.03;95376.34;5014961;28;20496;-54
2022/11/07 09:08:31;;;;;;;40.43;20.67;;;16.50;99.60;;;16.88;62.96;95377.53;5016042;28;20460;-58
2022/11/07 09:11:03;;;;;;;34.97;20.87;;;16.70;99.40;;;17.02;62.66;95374.19;5013101;28;20494;-56
2022/11/07 09:13:30;;;;;;;45.00;20.17;;;16.80;99.10;;;17.16;62.27;95378.81;5011838;28;20540;-55
2022/11/07 09:15:58;;;;;;;31.30;19.40;;;16.90;99.00;;;17.34;61.41;95380.47;5016010;28;20887;-56
2022/11/07 09:18:25;;;;;;;38.30;19.57;;;17.00;98.60;;;17.53;61.32;95372.09;5011462;28;20461;-57
2022/11/07 09:20:52;;;;;;;38.30;17.97;;;17.20;98.40;;;17.79;60.54;95359.56;5009552;28;20477;-55
2022/11/07 09:23:20;;;;;;;26.70;18.80;;;17.60;98.10;;;18.24;59.04;95369.53;5010573;28;20454;-58
2022/11/07 09:25:47;;;;;;;28.93;17.03;;;18.00;97.20;;;18.89;58.04;95374.63;5015144;28;20491;-57
2022/11/07 09:28:16;;;;;;;31.43;17.30;;;18.50;96.40;;;19.60;56.76;95368.97;5008630;28;20450;-56
2022/11/07 09:30:43;;;;;;;33.33;18.80;;;19.10;95.80;;;20.36;55.78;95364.19;5014736;28;20479;-56
2022/11/07 09:33:10;;;;;;;30.23;18.80;;;19.80;94.90;;;20.95;53.88;95370.38;5010577;28;20453;-55
2022/11/07 09:35:38;;;;;;;28.97;17.07;;;20.30;93.20;;;21.29;52.57;95363.44;5014014;28;20769;-56
2022/11/07 09:38:05;;;;;;;29.03;17.50;;;20.70;92.00;;;21.42;52.00;95354.69;5013431;28;20468;-57
2022/11/07 09:40:42;;;;;;;40.93;16.63;;;21.00;90.50;;;21.57;49.89;95349.25;5013368;28;20960;-56
2022/11/07 09:43:28;;;;;;;24.47;15.73;;;21.10;87.30;;;21.58;50.57;95348.22;5011226;28;20464;-57
2022/11/07 09:46:02;;;;;;;28.63;13.77;;;21.10;86.30;;;21.46;49.62;95356.78;5015535;28;20584;-57
2022/11/07 09:48:37;;;;;;;23.07;14.17;;;21.10;84.70;;;21.13;49.29;95354.69;5015419;28;20436;-58
2022/11/07 09:51:05;;;;;;;21.00;15.00;;;21.00;82.50;;;20.92;48.96;95357.38;5012416;28;20477;-59
2022/11/07 09:53:34;;;;;;;17.33;14.13;;;20.80;80.30;;;20.73;50.02;95356.19;5016698;28;20472;-57
2022/11/07 09:56:02;;;;;;;24.53;14.33;;;20.60;81.40;;;20.48;49.76;95353.00;5014278;28;20489;-56
2022/11/07 09:58:34;;;;;;;26.10;15.43;;;20.30;80.50;;;20.21;50.03;95360.75;5016474;28;20460;-54
2022/11/07 10:01:04;;;;;;;25.13;13.37;;;20.10;81.20;;;20.05;50.05;95349.25;5018690;28;20472;-56
2022/11/07 10:03:32;;;;;;;23.20;13.70;;;19.90;81.00;;;19.96;50.61;95355.72;5014798;28;20535;-56
2022/11/07 10:06:04;;;;;;;31.03;16.07;;;19.70;81.60;;;19.96;50.05;95352.22;5015559;28;20550;-54
2022/11/07 10:08:37;;;;;;;29.97;14.63;;;19.70;81.60;;;20.08;50.25;95347.22;5012796;28;20445;-57
2022/11/07 10:11:07;;;;;;;21.50;14.90;;;19.80;82.00;;;20.15;50.36;95332.91;5020001;28;20473;-56
2022/11/07 10:13:56;;;;;;;19.90;13.63;;;19.90;81.80;;;20.17;49.30;95338.06;5013929;28;20861;-56
2022/11/07 10:16:32;;;;;;;20.10;14.77;;;19.90;79.70;;;20.14;49.82;95328.63;5014582;28;20950;-55
2022/11/07 10:19:09;;;;;;;17.50;14.87;;;19.90;80.60;;;20.18;49.69;95337.88;5012462;28;21543;-56
2022/11/07 10:21:43;;;;;;;28.57;14.60;;;19.90;80.60;;;20.31;49.64;95341.72;5012819;28;20480;-55